createdAt,value
2017-11-30T00:00:15.364Z,65.73
2017-11-30T00:02:41.282Z,65.27
2017-11-30T00:05:07.261Z,65.05
2017-11-30T00:07:33.205Z,65.23
2017-11-30T00:09:59.149Z,65.67
2017-11-30T00:12:25.081Z,65.38
2017-11-30T00:14:51.009Z,64.42
2017-11-30T00:17:16.940Z,64.94
2017-11-30T00:19:42.877Z,66.10
2017-11-30T00:22:08.877Z,65.88
2017-11-30T00:24:34.799Z,66.16
2017-11-30T00:27:00.732Z,65.46
2017-11-30T00:29:26.705Z,65.04
2017-11-30T00:31:52.707Z,65.03
2017-11-30T00:34:18.648Z,64.22
2017-11-30T00:36:44.591Z,64.79
2017-11-30T00:39:10.525Z,64.72
2017-11-30T00:41:36.451Z,64.83
2017-11-30T00:44:02.375Z,64.92
2017-11-30T00:46:28.297Z,65.08
2017-11-30T00:48:54.228Z,64.75
2017-11-30T00:51:20.173Z,64.21
2017-11-30T00:53:46.096Z,64.37
2017-11-30T00:56:12.027Z,64.29
2017-11-30T00:58:37.957Z,64.75
2017-11-30T01:01:03.880Z,64.69
2017-11-30T01:03:29.824Z,64.83
2017-11-30T01:05:55.748Z,64.63
2017-11-30T01:08:21.690Z,64.86
2017-11-30T01:10:47.618Z,65.47
2017-11-30T01:13:13.554Z,64.61
2017-11-30T01:15:39.489Z,63.55
2017-11-30T01:18:05.439Z,64.75
2017-11-30T01:20:31.383Z,64.44
2017-11-30T01:22:57.318Z,65.00
2017-11-30T01:25:23.242Z,65.28
2017-11-30T01:27:49.151Z,64.39
2017-11-30T01:30:15.080Z,65.02
2017-11-30T01:32:41.013Z,65.33
2017-11-30T01:35:06.939Z,64.28
2017-11-30T01:37:32.858Z,64.38
2017-11-30T01:39:58.796Z,64.69
2017-11-30T01:42:24.728Z,64.77
2017-11-30T01:44:50.727Z,64.95
2017-11-30T01:47:16.658Z,65.33
2017-11-30T01:49:42.591Z,65.08
2017-11-30T01:52:08.528Z,64.70
2017-11-30T01:54:34.455Z,64.96
2017-11-30T01:57:00.399Z,65.02
2017-11-30T01:59:26.318Z,65.11
2017-11-30T02:01:52.256Z,64.24
2017-11-30T02:04:18.179Z,64.26
2017-11-30T02:06:44.116Z,64.77
2017-11-30T02:09:10.045Z,64.78
2017-11-30T02:11:35.981Z,64.76
2017-11-30T02:14:01.923Z,64.39
2017-11-30T02:16:27.854Z,64.58
2017-11-30T02:18:53.780Z,65.41
2017-11-30T02:21:19.732Z,65.48
2017-11-30T02:23:45.712Z,64.86
2017-11-30T02:26:11.633Z,65.27
2017-11-30T02:28:37.556Z,64.46
2017-11-30T02:31:03.486Z,65.42
2017-11-30T02:33:29.409Z,65.38
2017-11-30T02:35:55.353Z,65.67
2017-11-30T02:38:21.281Z,66.34
2017-11-30T02:40:47.217Z,66.02
2017-11-30T02:43:13.274Z,65.84
2017-11-30T02:45:39.209Z,65.36
2017-11-30T02:48:05.142Z,65.46
2017-11-30T02:50:31.067Z,65.12
2017-11-30T02:52:57.013Z,65.45
2017-11-30T02:55:22.959Z,65.24
2017-11-30T02:57:48.905Z,65.49
2017-11-30T03:00:14.864Z,65.51
2017-11-30T03:02:40.792Z,65.75
2017-11-30T03:05:06.716Z,65.82
2017-11-30T03:07:32.649Z,65.22
2017-11-30T03:09:58.577Z,65.23
2017-11-30T03:12:24.502Z,65.33
2017-11-30T03:14:50.420Z,65.78
2017-11-30T03:17:16.349Z,65.97
2017-11-30T03:19:42.279Z,65.71
2017-11-30T03:22:08.217Z,65.60
2017-11-30T03:24:34.136Z,65.12
2017-11-30T03:27:00.064Z,65.05
2017-11-30T03:29:25.980Z,65.17
2017-11-30T03:31:51.915Z,64.99
2017-11-30T03:34:17.854Z,66.11
2017-11-30T03:36:43.778Z,66.28
2017-11-30T03:39:09.716Z,65.27
2017-11-30T03:41:35.648Z,65.34
2017-11-30T03:44:01.596Z,65.54
2017-11-30T03:46:27.529Z,65.17
2017-11-30T03:48:53.452Z,65.77
2017-11-30T03:51:19.372Z,65.59
2017-11-30T03:53:45.308Z,65.08
2017-11-30T03:56:11.241Z,65.20
2017-11-30T03:58:37.224Z,65.77
2017-11-30T04:01:03.554Z,65.01
2017-11-30T04:03:29.488Z,64.46
2017-11-30T04:05:55.410Z,64.59
2017-11-30T04:08:21.336Z,64.47
2017-11-30T04:10:47.273Z,64.41
2017-11-30T04:13:13.208Z,65.32
2017-11-30T04:15:39.138Z,65.01
2017-11-30T04:18:05.053Z,65.43
2017-11-30T04:20:30.988Z,64.77
2017-11-30T04:22:56.917Z,64.92
2017-11-30T04:25:22.856Z,65.20
2017-11-30T04:27:48.796Z,64.94
2017-11-30T04:30:14.714Z,65.42
2017-11-30T04:32:40.688Z,65.90
2017-11-30T04:35:06.605Z,66.21
2017-11-30T04:37:32.579Z,66.63
2017-11-30T04:39:58.509Z,66.27
2017-11-30T04:42:24.524Z,66.11
2017-11-30T04:44:50.563Z,65.19
2017-11-30T04:47:16.496Z,65.25
2017-11-30T04:49:42.458Z,66.73
2017-11-30T04:52:08.384Z,65.99
2017-11-30T04:54:34.332Z,66.66
2017-11-30T04:57:00.257Z,65.53
2017-11-30T04:59:26.296Z,65.27
2017-11-30T05:01:52.248Z,66.05
2017-11-30T05:04:18.285Z,65.78
2017-11-30T05:06:44.217Z,66.14
2017-11-30T05:09:10.148Z,65.76
2017-11-30T05:11:36.092Z,66.03
2017-11-30T05:14:02.030Z,65.69
2017-11-30T05:16:27.960Z,65.18
2017-11-30T05:18:53.902Z,64.97
2017-11-30T05:21:19.884Z,65.42
2017-11-30T05:23:45.837Z,66.14
2017-11-30T05:26:11.776Z,66.03
2017-11-30T05:28:37.742Z,66.19
2017-11-30T05:31:03.669Z,65.63
2017-11-30T05:33:29.606Z,65.97
2017-11-30T05:35:55.568Z,65.72
2017-11-30T05:38:21.541Z,66.24
2017-11-30T05:40:47.481Z,65.97
2017-11-30T05:43:13.429Z,66.00
2017-11-30T05:45:39.366Z,65.52
2017-11-30T05:48:05.383Z,65.40
2017-11-30T05:50:31.305Z,65.57
2017-11-30T05:52:57.275Z,66.01
2017-11-30T05:55:23.196Z,66.50
2017-11-30T05:57:49.164Z,66.27
2017-11-30T06:00:15.141Z,65.99
2017-11-30T06:02:41.094Z,65.87
2017-11-30T06:05:07.081Z,65.41
2017-11-30T06:07:33.021Z,65.00
2017-11-30T06:09:58.980Z,65.01
2017-11-30T06:12:24.947Z,65.49
2017-11-30T06:14:50.896Z,65.40
2017-11-30T06:17:16.841Z,65.42
2017-11-30T06:19:42.773Z,65.80
2017-11-30T06:22:08.716Z,65.79
2017-11-30T06:24:34.669Z,65.62
2017-11-30T06:27:00.974Z,66.23
2017-11-30T06:29:26.929Z,66.54
2017-11-30T06:31:52.869Z,66.59
2017-11-30T06:34:18.827Z,66.28
2017-11-30T06:36:44.766Z,66.09
2017-11-30T06:39:10.703Z,66.01
2017-11-30T06:41:36.920Z,64.91
2017-11-30T06:44:02.870Z,64.52
2017-11-30T06:46:28.800Z,65.36
2017-11-30T06:48:54.737Z,65.62
2017-11-30T06:51:20.660Z,64.92
2017-11-30T06:53:46.637Z,65.18
2017-11-30T06:56:12.557Z,65.25
2017-11-30T06:58:38.492Z,64.72
2017-11-30T07:01:04.448Z,64.57
2017-11-30T07:03:30.400Z,63.95
2017-11-30T07:05:56.342Z,64.02
2017-11-30T07:08:22.292Z,63.88
2017-11-30T07:10:48.240Z,63.71
2017-11-30T07:13:14.272Z,63.71
2017-11-30T07:15:40.212Z,62.90
2017-11-30T07:18:06.225Z,62.53
2017-11-30T07:20:32.165Z,62.26
2017-11-30T07:22:58.093Z,61.83
2017-11-30T07:25:24.033Z,61.94
2017-11-30T07:27:49.982Z,61.61
2017-11-30T07:30:15.923Z,61.02
2017-11-30T07:32:41.861Z,60.82
2017-11-30T07:35:07.805Z,60.80
2017-11-30T07:37:33.750Z,60.59
2017-11-30T07:39:59.684Z,60.18
2017-11-30T07:42:25.622Z,60.66
2017-11-30T07:44:51.548Z,61.01
2017-11-30T07:47:17.513Z,60.53
2017-11-30T07:49:43.453Z,60.74
2017-11-30T07:52:09.375Z,60.89
2017-11-30T07:54:35.310Z,60.50
2017-11-30T07:57:01.244Z,60.26
2017-11-30T07:59:27.193Z,60.17
2017-11-30T08:01:53.129Z,60.23
2017-11-30T08:04:19.068Z,60.54
2017-11-30T08:06:44.980Z,60.06
2017-11-30T08:09:10.927Z,60.11
2017-11-30T08:11:36.861Z,60.25
2017-11-30T08:14:02.796Z,59.97
2017-11-30T08:16:28.724Z,59.97
2017-11-30T08:18:54.740Z,60.45
2017-11-30T08:21:20.677Z,61.40
2017-11-30T08:23:46.616Z,60.81
2017-11-30T08:26:12.552Z,60.25
2017-11-30T08:28:38.476Z,60.85
2017-11-30T08:31:04.402Z,60.88
2017-11-30T08:33:30.327Z,60.45
2017-11-30T08:35:56.253Z,60.63
2017-11-30T08:38:22.189Z,60.92
2017-11-30T08:40:48.110Z,60.42
2017-11-30T08:43:14.057Z,60.82
2017-11-30T08:45:39.988Z,60.95
2017-11-30T08:48:05.917Z,60.31
2017-11-30T08:50:31.864Z,60.62
2017-11-30T08:52:57.805Z,60.59
2017-11-30T08:55:23.725Z,60.53
2017-11-30T08:57:49.669Z,60.95
2017-11-30T09:00:15.590Z,60.70
2017-11-30T09:02:41.522Z,60.55
2017-11-30T09:05:07.473Z,60.32
2017-11-30T09:07:33.406Z,60.78
2017-11-30T09:09:59.385Z,60.94
2017-11-30T09:12:25.304Z,60.74
2017-11-30T09:14:51.228Z,61.67
2017-11-30T09:17:17.159Z,61.07
2017-11-30T09:19:43.090Z,60.36
2017-11-30T09:22:09.047Z,60.46
2017-11-30T09:24:35.016Z,60.50
2017-11-30T09:27:00.948Z,60.20
2017-11-30T09:29:26.868Z,60.43
2017-11-30T09:31:52.798Z,60.16
2017-11-30T09:34:18.748Z,60.16
2017-11-30T09:36:44.680Z,60.69
2017-11-30T09:39:10.596Z,60.34
2017-11-30T09:41:36.526Z,60.12
2017-11-30T09:44:02.474Z,60.02
2017-11-30T09:46:28.412Z,59.88
2017-11-30T09:48:54.347Z,59.59
2017-11-30T09:51:20.319Z,59.56
2017-11-30T09:53:46.278Z,59.90
2017-11-30T09:56:12.208Z,59.37
2017-11-30T09:58:38.130Z,59.56
2017-11-30T10:01:04.091Z,59.11
2017-11-30T10:03:30.027Z,58.91
2017-11-30T10:05:55.960Z,58.56
2017-11-30T10:08:21.893Z,59.25
2017-11-30T10:10:47.836Z,58.86
2017-11-30T10:13:13.765Z,58.04
2017-11-30T10:15:39.729Z,57.93
2017-11-30T10:18:05.660Z,57.22
2017-11-30T10:20:31.589Z,57.04
2017-11-30T10:22:57.511Z,56.97
2017-11-30T10:25:23.438Z,56.44
2017-11-30T10:27:49.385Z,56.50
2017-11-30T10:30:15.334Z,56.38
2017-11-30T10:32:41.270Z,56.00
2017-11-30T10:35:07.204Z,56.17
2017-11-30T10:37:33.153Z,55.39
2017-11-30T10:39:59.104Z,55.26
2017-11-30T10:42:25.048Z,55.15
2017-11-30T10:44:50.967Z,54.97
2017-11-30T10:47:16.893Z,54.92
2017-11-30T10:49:42.816Z,54.63
2017-11-30T10:52:08.744Z,54.82
2017-11-30T10:54:34.664Z,55.45
2017-11-30T10:57:00.611Z,55.38
2017-11-30T10:59:26.548Z,54.69
2017-11-30T11:01:52.481Z,54.43
2017-11-30T11:04:18.440Z,54.21
2017-11-30T11:06:44.380Z,54.19
2017-11-30T11:09:10.332Z,54.56
2017-11-30T11:11:36.281Z,54.94
2017-11-30T11:14:02.238Z,54.86
2017-11-30T11:16:28.188Z,55.21
2017-11-30T11:18:54.108Z,55.13
2017-11-30T11:21:20.024Z,55.37
2017-11-30T11:23:45.969Z,55.41
2017-11-30T11:26:11.928Z,55.43
2017-11-30T11:28:37.848Z,55.60
2017-11-30T11:31:03.798Z,55.74
2017-11-30T11:33:29.735Z,55.63
2017-11-30T11:35:55.652Z,55.33
2017-11-30T11:38:21.576Z,55.15
2017-11-30T11:40:47.497Z,55.17
2017-11-30T11:43:13.420Z,53.66
2017-11-30T11:45:39.347Z,53.39
2017-11-30T11:48:05.277Z,53.41
2017-11-30T11:50:31.204Z,52.92
2017-11-30T11:52:57.171Z,52.70
2017-11-30T11:55:23.119Z,52.38
2017-11-30T11:57:49.062Z,52.48
2017-11-30T12:00:14.991Z,52.26
2017-11-30T12:02:40.916Z,52.36
2017-11-30T12:05:06.861Z,52.37
2017-11-30T12:07:32.801Z,51.95
2017-11-30T12:09:58.721Z,51.81
2017-11-30T12:12:24.643Z,51.50
2017-11-30T12:14:50.578Z,51.55
2017-11-30T12:17:16.525Z,51.55
2017-11-30T12:19:42.471Z,51.67
2017-11-30T12:22:08.392Z,52.00
2017-11-30T12:24:34.311Z,51.83
2017-11-30T12:27:00.238Z,51.86
2017-11-30T12:29:26.161Z,51.73
2017-11-30T12:31:52.108Z,51.93
2017-11-30T12:34:18.039Z,51.48
2017-11-30T12:36:43.976Z,51.86
2017-11-30T12:39:09.920Z,51.89
2017-11-30T12:41:35.874Z,51.71
2017-11-30T12:44:01.825Z,51.85
2017-11-30T12:46:27.778Z,51.46
2017-11-30T12:48:53.722Z,51.58
2017-11-30T12:51:19.660Z,51.46
2017-11-30T12:53:45.587Z,51.15
2017-11-30T12:56:11.527Z,51.18
2017-11-30T12:58:37.456Z,51.29
2017-11-30T13:01:03.378Z,51.11
2017-11-30T13:03:29.309Z,50.94
2017-11-30T13:05:55.258Z,50.63
2017-11-30T13:08:21.192Z,50.91
2017-11-30T13:10:47.115Z,50.63
2017-11-30T13:13:13.042Z,50.33
2017-11-30T13:15:38.974Z,50.53
2017-11-30T13:18:04.970Z,50.34
2017-11-30T13:20:30.896Z,50.20
2017-11-30T13:22:56.835Z,50.29
2017-11-30T13:25:22.784Z,50.66
2017-11-30T13:27:48.754Z,50.32
2017-11-30T13:30:14.688Z,50.50
2017-11-30T13:32:40.614Z,50.33
2017-11-30T13:35:06.542Z,50.06
2017-11-30T13:37:32.467Z,49.58
2017-11-30T13:39:58.389Z,49.96
2017-11-30T13:42:24.306Z,49.92
2017-11-30T13:44:50.226Z,49.88
2017-11-30T13:47:16.150Z,49.67
2017-11-30T13:49:42.068Z,49.58
2017-11-30T13:52:08.028Z,49.49
2017-11-30T13:54:33.960Z,49.50
2017-11-30T13:56:59.886Z,49.56
2017-11-30T13:59:25.802Z,49.58
2017-11-30T14:01:51.734Z,49.46
2017-11-30T14:04:17.684Z,49.57
2017-11-30T14:06:43.608Z,49.94
2017-11-30T14:09:09.539Z,49.86
2017-11-30T14:11:35.479Z,49.83
2017-11-30T14:14:01.400Z,49.83
2017-11-30T14:16:27.351Z,49.77
2017-11-30T14:18:53.314Z,50.19
2017-11-30T14:21:19.251Z,49.81
2017-11-30T14:23:45.196Z,49.53
2017-11-30T14:26:11.136Z,49.30
2017-11-30T14:28:37.058Z,49.28
2017-11-30T14:31:02.982Z,49.43
2017-11-30T14:33:28.933Z,49.26
2017-11-30T14:35:54.871Z,49.31
2017-11-30T14:38:20.824Z,49.27
2017-11-30T14:40:46.770Z,49.32
2017-11-30T14:43:12.700Z,49.21
2017-11-30T14:45:38.640Z,49.36
2017-11-30T14:48:04.580Z,49.10
2017-11-30T14:50:30.504Z,49.11
2017-11-30T14:52:56.462Z,49.27
2017-11-30T14:55:22.497Z,49.52
2017-11-30T14:57:48.430Z,49.98
2017-11-30T15:00:14.354Z,49.72
2017-11-30T15:02:40.294Z,49.94
2017-11-30T15:05:06.250Z,49.91
2017-11-30T15:07:32.169Z,50.68
2017-11-30T15:09:58.114Z,50.78
2017-11-30T15:12:24.045Z,50.75
2017-11-30T15:14:49.965Z,50.88
2017-11-30T15:17:15.887Z,50.88
2017-11-30T15:19:41.824Z,51.28
2017-11-30T15:22:07.756Z,51.22
2017-11-30T15:24:33.682Z,51.30
2017-11-30T15:26:59.604Z,51.31
2017-11-30T15:29:25.531Z,51.22
2017-11-30T15:31:51.484Z,51.00
2017-11-30T15:34:17.414Z,50.98
2017-11-30T15:36:43.351Z,51.17
2017-11-30T15:39:09.278Z,51.41
2017-11-30T15:41:35.213Z,51.22
2017-11-30T15:44:01.156Z,51.02
2017-11-30T15:46:27.086Z,50.92
2017-11-30T15:48:53.014Z,51.23
2017-11-30T15:51:18.996Z,51.20
2017-11-30T15:53:44.977Z,51.37
2017-11-30T15:56:10.993Z,51.86
2017-11-30T15:58:37.134Z,51.91
2017-11-30T16:01:03.077Z,51.37
2017-11-30T16:03:28.994Z,51.71
2017-11-30T16:05:54.918Z,52.29
2017-11-30T16:08:20.838Z,51.94
2017-11-30T16:10:46.780Z,52.31
2017-11-30T16:13:12.757Z,52.39
2017-11-30T16:15:38.692Z,52.37
2017-11-30T16:18:04.624Z,52.17
2017-11-30T16:20:30.564Z,52.29
2017-11-30T16:22:56.536Z,52.30
2017-11-30T16:25:22.527Z,52.62
2017-11-30T16:27:48.462Z,52.33
2017-11-30T16:30:14.386Z,52.30
2017-11-30T16:32:40.518Z,52.67
2017-11-30T16:35:06.598Z,52.80
2017-11-30T16:37:32.495Z,52.71
2017-11-30T16:39:58.442Z,52.31
2017-11-30T16:42:24.396Z,52.77
2017-11-30T16:44:50.312Z,52.75
2017-11-30T16:47:16.295Z,53.33
2017-11-30T16:49:42.218Z,53.44
2017-11-30T16:52:08.146Z,54.04
2017-11-30T16:54:34.082Z,54.43
2017-11-30T16:57:00.034Z,54.47
2017-11-30T16:59:25.989Z,54.60
2017-11-30T17:01:51.924Z,54.62
2017-11-30T17:04:17.860Z,55.12
2017-11-30T17:06:43.810Z,55.00
2017-11-30T17:09:09.766Z,55.01
2017-11-30T17:11:35.746Z,55.24
2017-11-30T17:14:01.678Z,55.04
2017-11-30T17:16:27.614Z,55.31
2017-11-30T17:18:53.575Z,55.33
2017-11-30T17:21:19.634Z,55.71
2017-11-30T17:23:45.626Z,55.57
2017-11-30T17:26:11.592Z,55.71
2017-11-30T17:28:37.695Z,55.87
2017-11-30T17:31:03.622Z,56.09
2017-11-30T17:33:29.577Z,56.08
2017-11-30T17:35:55.607Z,56.37
2017-11-30T17:38:21.605Z,56.13
2017-11-30T17:40:47.622Z,56.52
2017-11-30T17:43:13.566Z,56.20
2017-11-30T17:45:39.500Z,56.01
2017-11-30T17:48:05.449Z,56.59
2017-11-30T17:50:31.371Z,56.25
2017-11-30T17:52:57.303Z,56.98
2017-11-30T17:55:23.226Z,57.37
2017-11-30T17:57:49.147Z,58.20
2017-11-30T18:00:15.112Z,56.90
2017-11-30T18:02:41.068Z,57.24
2017-11-30T18:05:06.991Z,56.96
2017-11-30T18:07:32.933Z,57.33
2017-11-30T18:09:58.938Z,57.40
2017-11-30T18:12:24.880Z,57.52
2017-11-30T18:14:50.852Z,57.45
2017-11-30T18:17:16.836Z,56.77
2017-11-30T18:19:42.759Z,56.87
2017-11-30T18:22:08.750Z,57.09
2017-11-30T18:24:34.684Z,57.30
2017-11-30T18:27:00.628Z,56.68
2017-11-30T18:29:26.551Z,56.83
2017-11-30T18:31:52.503Z,57.26
2017-11-30T18:34:18.430Z,57.40
2017-11-30T18:36:44.411Z,57.55
2017-11-30T18:39:10.408Z,57.49
2017-11-30T18:41:36.346Z,57.06
2017-11-30T18:44:02.306Z,57.67
2017-11-30T18:46:28.257Z,57.61
2017-11-30T18:48:54.180Z,57.45
2017-11-30T18:51:20.129Z,57.37
2017-11-30T18:53:46.103Z,56.98
2017-11-30T18:56:12.015Z,56.92
2017-11-30T18:58:37.968Z,57.41
2017-11-30T19:01:04.279Z,57.37
2017-11-30T19:03:30.257Z,58.17
2017-11-30T19:05:56.199Z,58.07
2017-11-30T19:08:22.273Z,57.72
2017-11-30T19:10:48.209Z,57.85
2017-11-30T19:13:14.203Z,58.12
2017-11-30T19:15:40.204Z,57.93
2017-11-30T19:18:06.237Z,57.99
2017-11-30T19:20:32.231Z,57.85
2017-11-30T19:22:58.186Z,57.43
2017-11-30T19:25:24.140Z,57.62
2017-11-30T19:27:50.073Z,57.67
2017-11-30T19:30:16.035Z,57.86
2017-11-30T19:32:41.975Z,57.85
2017-11-30T19:35:08.100Z,57.97
2017-11-30T19:37:34.030Z,57.83
2017-11-30T19:39:59.964Z,57.91
2017-11-30T19:42:25.955Z,58.03
2017-11-30T19:44:51.888Z,58.19
2017-11-30T19:47:17.845Z,57.80
2017-11-30T19:49:43.821Z,56.97
2017-11-30T19:52:09.751Z,57.18
2017-11-30T19:54:35.731Z,57.30
2017-11-30T19:57:01.696Z,56.86
2017-11-30T19:59:27.623Z,56.79
2017-11-30T20:01:53.756Z,56.88
2017-11-30T20:04:19.700Z,56.69
2017-11-30T20:06:45.660Z,56.67
2017-11-30T20:09:11.655Z,56.74
2017-11-30T20:11:37.623Z,56.54
2017-11-30T20:14:03.569Z,56.93
2017-11-30T20:16:29.526Z,57.09
2017-11-30T20:18:55.488Z,56.63
2017-11-30T20:21:21.475Z,56.87
2017-11-30T20:23:47.414Z,57.05
2017-11-30T20:26:13.349Z,56.89
2017-11-30T20:28:39.281Z,56.40
2017-11-30T20:31:05.224Z,56.49
2017-11-30T20:33:31.314Z,56.13
2017-11-30T20:35:57.257Z,56.05
2017-11-30T20:38:23.199Z,55.66
2017-11-30T20:40:49.176Z,55.31
2017-11-30T20:43:16.435Z,55.24
2017-11-30T20:45:42.399Z,55.20
2017-11-30T20:48:08.463Z,55.19
2017-11-30T20:50:34.395Z,54.92
2017-11-30T20:53:00.323Z,55.74
2017-11-30T20:55:26.339Z,56.00
2017-11-30T20:57:52.311Z,55.65
2017-11-30T21:00:18.325Z,55.71
2017-11-30T21:02:44.291Z,55.60
2017-11-30T21:05:10.241Z,55.81
2017-11-30T21:10:08.673Z,55.34
2017-11-30T21:12:34.612Z,55.19
2017-11-30T21:15:00.628Z,55.73
2017-11-30T21:17:27.802Z,55.60
2017-11-30T21:19:53.812Z,55.90
2017-11-30T21:22:19.839Z,56.67
2017-11-30T21:24:45.862Z,56.66
2017-11-30T21:27:11.860Z,56.43
2017-11-30T21:29:37.830Z,56.35
2017-11-30T21:32:03.798Z,56.62
2017-11-30T21:34:29.777Z,56.95
2017-11-30T21:36:55.690Z,57.16
2017-11-30T21:39:21.680Z,56.70
2017-11-30T21:41:47.613Z,56.77
2017-11-30T21:44:13.540Z,57.92
2017-11-30T21:46:39.482Z,58.31
2017-11-30T21:49:05.407Z,58.38
2017-11-30T21:51:31.359Z,59.40
2017-11-30T21:53:57.302Z,58.76
2017-11-30T21:56:23.237Z,59.38
2017-11-30T21:58:49.313Z,59.96
2017-11-30T22:01:15.234Z,60.04
2017-11-30T22:03:41.312Z,60.19
2017-11-30T22:06:07.316Z,59.98
2017-11-30T22:08:33.276Z,60.45
2017-11-30T22:10:59.230Z,60.77
2017-11-30T22:13:25.330Z,60.65
2017-11-30T22:15:51.262Z,60.55
2017-11-30T22:18:17.200Z,60.83
2017-11-30T22:20:43.144Z,60.17
2017-11-30T22:23:09.177Z,60.27
2017-11-30T22:25:35.127Z,60.29
2017-11-30T22:28:01.114Z,60.61
2017-11-30T22:30:27.067Z,61.30
2017-11-30T22:32:53.006Z,60.13
2017-11-30T22:35:18.998Z,60.23
2017-11-30T22:37:44.997Z,60.57
2017-11-30T22:40:10.954Z,60.65
2017-11-30T22:42:36.907Z,61.05
2017-11-30T22:45:02.837Z,60.88
2017-11-30T22:47:28.758Z,60.88
2017-11-30T22:49:54.682Z,61.59
2017-11-30T22:52:20.655Z,61.28
2017-11-30T22:54:46.620Z,60.88
2017-11-30T22:57:12.558Z,60.91
2017-11-30T22:59:38.502Z,61.68
2017-11-30T23:02:04.440Z,61.48
2017-11-30T23:04:30.382Z,60.61
2017-11-30T23:06:56.358Z,60.96
2017-11-30T23:09:22.301Z,60.70
2017-11-30T23:11:48.248Z,60.55
2017-11-30T23:14:14.166Z,60.05
2017-11-30T23:16:40.090Z,59.86
2017-11-30T23:19:06.002Z,59.73
2017-11-30T23:21:31.948Z,60.34
2017-11-30T23:23:57.870Z,60.42
2017-11-30T23:26:23.794Z,60.26
2017-11-30T23:28:49.722Z,59.60
2017-11-30T23:31:15.654Z,59.76
2017-11-30T23:33:41.583Z,60.35
2017-11-30T23:36:07.518Z,60.39
2017-11-30T23:38:33.454Z,59.47
2017-11-30T23:40:59.394Z,59.77
2017-11-30T23:43:25.323Z,59.58
2017-11-30T23:45:51.258Z,59.91
2017-11-30T23:48:17.170Z,59.92
2017-11-30T23:50:43.114Z,60.03
2017-11-30T23:53:09.038Z,59.71
2017-11-30T23:55:34.983Z,59.43
2017-11-30T23:58:00.902Z,59.30
